Valparaiso, FL

7:46 PM CDT on September 30, 2014 (GMT -0500)
Pear Tree Observatory | Change Station
CLOSE
Current Station
Personal Weather Station
Location: Valparaiso, FL
Elevation: 80 ft
Nearby Weather Stations

Elev 80 ft 30.51 °N, 86.50 °W | Updated 15 seconds ago

Mostly Cloudy
Mostly Cloudy
73.4 °F
Feels Like 73 °F
N
0.0
Wind Variable Wind from North
Gusts 0.0 mph

Today
High -- | Low -- °F
--% Chance of Precip.
Yesterday
High -- | Low -- °F
Precip. -- in
6:38 AM 6:32 PM
Waxing Crescent, 41% visible
Pressure 29.90 in
Visibility 10.0 miles
Clouds Mostly Cloudy 2800 ft
Mostly Cloudy 20000 ft
Heat Index 73 °F
Dew Point 69 °F
Humidity 85%
Rainfall 0.01 in
Snow Depth Not available.
UV 0 out of 12
Pollen 6.90 out of 12
Ozone Good
PM2.5 Good
Flu Activity Not available.
METAR KVPS 302355Z 06004KT 10SM BKN028 BKN200 24/19 A2988 RMK AO2A SLP124 T02430194 10267 20243 52008 $

More Conditions Fewer Conditions

Pressure 29.90 in
Visibility 10.0 miles
Clouds Mostly Cloudy 2800 ft
Mostly Cloudy 20000 ft
Heat Index 73 °F
Dew Point 69 °F
Humidity 85%
Rainfall 0.01 in
Snow Depth Not available.
UV 0 out of 12
Pollen 6.90 out of 12
Ozone Good
PM2.5 Good
Flu Activity Not available.
METAR KVPS 302355Z 06004KT 10SM BKN028 BKN200 24/19 A2988 RMK AO2A SLP124 T02430194 10267 20243 52008 $

More Conditions Fewer Conditions

10-Day Weather Forecast

Almanac

Astronomy

Sep. 30, 2014 Rise Set
Actual Time 6:38 AM CDT 6:32 PM CDT
Civil Twilight 6:14 AM CDT 6:56 PM CDT
Nautical Twilight 5:47 AM CDT 7:24 PM CDT
Astronomical Twilight 5:19 AM CDT 7:52 PM CDT
Moon 12:28 PM CDT (9/30) 11:20 PM CDT (9/30)
Length of Visible Light 12h 41m
Length of Day
11h 53m
Tomorrow will be 1m 49s shorter.
Waxing Crescent, 41% of the Moon is Illuminated
Today
Waxing Crescent
Oct 1
First Quarter
Oct 8
Full
Oct 15
Last Quarter
Oct 23
New

Today's Extremes

State Highs State Lows

Community

WunderPhotos

Upload Photos

1,757,801 photos uploaded!

Nearby

Air Quality

  Air Quality AQ Index Pollutant
Yesterday Good
PM2.5
Yesterday Good
OZONE
Current Good
PM2.5
Current Good
OZONE
Tuesday Good
OZONE
Wednesday Good
OZONE
Thursday Good
OZONE
Friday Good
OZONE
Saturday Good
OZONE
Sunday Good
OZONE

Snow Depth

Station Depth Elevation
No new snow has been reported.

Earthquake Activity

City Distance Mag. Time & Date
No recent earthquake activity has been reported nearby.
Minimum magnitude displayed is 2.5.

Coastal Water Temperatures

Place Temperature
No Stations Reporting

Nearby Weather Stations